Time;durP1;ratioP1;P1;durP2;ratioP2;P2;SDS_P1;SDS_P2;PMS_P1;PMS_P2;Temp;Humidity;BMP_temperature;BMP_pressure;BME280_temperature;BME280_humidity;BME280_pressure;Samples;Min_cycle;Max_cycle;Signal;HPM_P1;HPM_P2
2022/03/28 00:00:52;;;;;;;14.20;3.40;;;;;;;7.19;98.12;102800.28;4964015;28;20498;-83
2022/03/28 00:03:17;;;;;;;16.55;3.60;;;;;;;7.22;97.86;102805.53;4983109;28;20039;-83
2022/03/28 00:05:42;;;;;;;21.60;4.22;;;;;;;7.21;98.28;102802.03;4946987;28;20079;-83
2022/03/28 00:08:08;;;;;;;19.27;4.05;;;;;;;7.24;98.17;102792.38;4952752;29;20122;-84
2022/03/28 00:10:34;;;;;;;18.33;3.72;;;;;;;7.21;98.18;102790.59;4936948;28;20427;-85
2022/03/28 00:13:00;;;;;;;18.05;3.47;;;;;;;7.21;98.00;102796.78;4968272;28;20027;-84
2022/03/28 00:15:25;;;;;;;17.08;3.45;;;;;;;7.19;98.26;102790.59;4944325;28;20031;-83
2022/03/28 00:17:51;;;;;;;18.35;4.10;;;;;;;7.18;97.93;102786.22;4950721;28;20170;-83
2022/03/28 00:20:17;;;;;;;16.90;3.38;;;;;;;7.22;97.96;102789.72;4947074;29;20377;-85
2022/03/28 00:22:42;;;;;;;17.00;3.55;;;;;;;7.15;97.61;102783.59;4964339;28;20094;-84
2022/03/28 00:25:09;;;;;;;18.00;3.50;;;;;;;7.09;97.42;102780.94;4945007;28;20125;-83
2022/03/28 00:27:38;;;;;;;19.92;3.88;;;;;;;7.13;98.53;102789.72;4949654;28;20042;-84
2022/03/28 00:30:06;;;;;;;17.75;3.70;;;;;;;7.12;98.51;102787.97;4964438;28;20134;-84
2022/03/28 00:32:32;;;;;;;20.70;3.45;;;;;;;7.10;98.01;102780.06;4953511;28;20035;-83
2022/03/28 00:34:58;;;;;;;17.30;3.75;;;;;;;7.11;98.23;102787.09;4920578;29;20078;-83
2022/03/28 00:37:24;;;;;;;22.20;4.47;;;;;;;7.10;98.04;102782.72;4950376;28;20054;-83
2022/03/28 00:39:49;;;;;;;20.33;3.50;;;;;;;7.05;97.26;102774.78;4989466;28;20064;-84
2022/03/28 00:42:15;;;;;;;20.35;4.85;;;;;;;7.10;97.58;102772.16;4984581;28;20046;-85
2022/03/28 00:44:40;;;;;;;24.02;4.90;;;;;;;7.10;97.83;102761.63;5007744;28;20042;-84
2022/03/28 00:47:06;;;;;;;21.55;4.03;;;;;;;7.09;97.61;102764.28;4992454;28;20673;-85
2022/03/28 00:49:33;;;;;;;22.20;3.92;;;;;;;7.09;98.01;102767.78;4968238;28;20087;-83
2022/03/28 00:51:59;;;;;;;15.68;3.90;;;;;;;7.14;97.85;102765.16;4972381;28;20178;-84
2022/03/28 00:54:24;;;;;;;19.38;3.72;;;;;;;7.10;97.70;102764.25;5004874;28;20042;-83
2022/03/28 00:56:50;;;;;;;23.67;4.07;;;;;;;7.09;97.38;102761.63;4989611;28;20069;-84
2022/03/28 00:59:17;;;;;;;24.17;3.85;;;;;;;7.04;97.68;102759.00;4985844;28;20066;-83
2022/03/28 01:01:44;;;;;;;18.13;4.25;;;;;;;7.04;97.67;102751.94;4969169;28;20117;-84
2022/03/28 01:04:10;;;;;;;22.80;4.82;;;;;;;7.03;97.60;102747.59;4966839;28;20036;-84
2022/03/28 01:06:36;;;;;;;14.63;3.25;;;;;;;7.03;97.47;102747.59;4967855;28;20038;-83
2022/03/28 01:09:03;;;;;;;16.13;3.88;;;;;;;6.96;97.38;102732.63;4978882;28;20031;-84
2022/03/28 01:11:32;;;;;;;17.42;3.70;;;;;;;6.91;97.51;102741.44;4991216;28;20050;-83
2022/03/28 01:13:59;;;;;;;17.48;4.00;;;;;;;6.85;97.48;102734.38;4975224;28;20022;-84
2022/03/28 01:16:28;;;;;;;18.52;3.80;;;;;;;6.84;97.96;102732.63;4974949;28;20122;-84
2022/03/28 01:18:54;;;;;;;18.50;3.95;;;;;;;6.83;98.03;102729.13;4991380;28;20034;-84
2022/03/28 01:21:19;;;;;;;17.65;3.35;;;;;;;6.79;97.99;102722.09;4954779;28;20093;-83
2022/03/28 01:23:45;;;;;;;22.92;4.07;;;;;;;6.75;98.28;102722.94;4973322;28;20038;-83
2022/03/28 01:26:12;;;;;;;21.00;4.35;;;;;;;6.74;98.47;102721.22;4987437;28;20045;-84
2022/03/28 01:28:38;;;;;;;24.13;4.68;;;;;;;6.73;98.24;102722.09;4990318;28;20030;-85
2022/03/28 01:31:03;;;;;;;15.88;3.78;;;;;;;6.67;98.04;102724.69;4992075;28;20045;-83
2022/03/28 01:33:29;;;;;;;18.15;3.97;;;;;;;6.67;98.40;102717.66;4976377;28;20486;-84
2022/03/28 01:35:55;;;;;;;22.60;4.30;;;;;;;6.69;97.95;102725.59;4994256;28;20077;-85
2022/03/28 01:38:21;;;;;;;16.58;3.45;;;;;;;6.68;97.61;102724.69;4963409;28;20079;-85
2022/03/28 01:40:50;;;;;;;22.92;4.00;;;;;;;6.64;97.19;102715.03;4950014;28;20027;-84
2022/03/28 01:43:16;;;;;;;19.02;4.45;;;;;;;6.61;97.77;102716.78;4966244;28;20027;-84
2022/03/28 01:45:41;;;;;;;17.92;3.63;;;;;;;6.59;97.89;102710.66;4967608;28;20028;-85
2022/03/28 01:48:08;;;;;;;18.67;4.35;;;;;;;6.53;98.25;102708.88;4932795;28;20027;-83
2022/03/28 01:50:33;;;;;;;19.95;4.57;;;;;;;6.51;98.48;102705.34;4953425;28;20027;-83
2022/03/28 01:52:59;;;;;;;17.15;3.65;;;;;;;6.50;98.55;102709.75;4969502;28;20403;-83
2022/03/28 01:55:25;;;;;;;15.77;3.47;;;;;;;6.50;98.13;102699.22;4950633;28;20048;-85
2022/03/28 01:57:52;;;;;;;20.85;3.95;;;;;;;6.43;98.04;102686.03;4952198;28;20042;-84
2022/03/28 02:00:20;;;;;;;22.23;3.97;;;;;;;6.40;98.54;102690.41;4953977;28;20031;-84
2022/03/28 02:02:48;;;;;;;16.98;3.72;;;;;;;6.35;98.63;102684.25;4945625;28;20066;-84
2022/03/28 02:05:15;;;;;;;16.95;4.00;;;;;;;6.29;98.87;102694.78;4933560;28;20093;-84
2022/03/28 02:07:44;;;;;;;17.58;3.75;;;;;;;6.26;98.98;102693.91;4960917;28;20074;-82
2022/03/28 02:10:11;;;;;;;22.33;4.15;;;;;;;6.27;99.33;102685.16;4963828;28;20023;-83
2022/03/28 02:12:36;;;;;;;16.40;3.72;;;;;;;6.26;98.83;102688.66;4992601;23;20060;-66
2022/03/28 02:15:05;;;;;;;18.17;3.83;;;;;;;6.20;99.07;102694.75;4953927;29;20121;-66
2022/03/28 02:17:31;;;;;;;18.00;4.07;;;;;;;6.20;99.67;102685.13;4942760;29;20395;-67
2022/03/28 02:19:57;;;;;;;18.60;4.00;;;;;;;6.18;98.91;102680.72;4953423;28;20046;-66
2022/03/28 02:22:23;;;;;;;20.23;4.15;;;;;;;6.15;99.50;102678.97;4969499;28;21578;-66
2022/03/28 02:24:48;;;;;;;15.73;4.15;;;;;;;6.11;98.87;102681.56;4953142;28;20768;-67
2022/03/28 02:27:14;;;;;;;19.42;3.83;;;;;;;6.06;99.47;102679.81;4956079;28;20034;-66
2022/03/28 02:29:39;;;;;;;18.73;4.18;;;;;;;6.05;99.49;102672.78;4962378;28;20479;-66
2022/03/28 02:32:05;;;;;;;18.25;4.20;;;;;;;6.07;99.94;102672.78;4954261;28;20121;-66
2022/03/28 02:34:30;;;;;;;15.38;4.00;;;;;;;6.04;99.68;102664.91;4963118;28;20043;-66
2022/03/28 02:36:56;;;;;;;19.02;4.38;;;;;;;6.02;99.96;102658.75;4967903;28;20027;-66
2022/03/28 02:39:21;;;;;;;18.23;4.07;;;;;;;5.98;99.56;102664.84;4961183;28;20384;-66
2022/03/28 02:41:46;;;;;;;22.83;4.85;;;;;;;5.94;100.00;102652.56;4957037;28;20167;-66
2022/03/28 02:44:12;;;;;;;14.10;4.10;;;;;;;5.93;100.00;102659.53;4954299;28;20066;-66
2022/03/28 02:46:37;;;;;;;18.05;4.57;;;;;;;5.91;100.00;102653.44;4956762;28;20550;-67
2022/03/28 02:49:03;;;;;;;23.20;4.97;;;;;;;5.88;100.00;102645.50;4953001;28;20075;-67
2022/03/28 02:51:29;;;;;;;20.30;4.80;;;;;;;5.85;100.00;102649.00;4956287;28;20031;-66
2022/03/28 02:53:54;;;;;;;18.50;4.63;;;;;;;5.85;100.00;102648.13;4965737;28;20027;-66
2022/03/28 02:56:20;;;;;;;19.80;4.38;;;;;;;5.86;100.00;102640.25;4957869;28;20106;-66
2022/03/28 02:58:46;;;;;;;24.02;4.75;;;;;;;5.81;100.00;102635.84;4958673;28;20046;-67
2022/03/28 03:01:11;;;;;;;15.70;4.25;;;;;;;5.76;100.00;102638.47;4972448;28;20438;-68
2022/03/28 03:03:36;;;;;;;20.95;4.30;;;;;;;5.76;100.00;102634.97;4960265;28;20030;-67
2022/03/28 03:06:02;;;;;;;15.02;4.78;;;;;;;5.76;100.00;102624.44;4964752;28;20106;-67
2022/03/28 03:08:28;;;;;;;17.30;4.88;;;;;;;5.72;100.00;102626.19;4971769;28;20044;-67
2022/03/28 03:10:54;;;;;;;16.73;4.60;;;;;;;5.69;100.00;102615.63;4968218;28;20035;-67
2022/03/28 03:13:19;;;;;;;16.55;4.80;;;;;;;5.74;100.00;102627.94;4962704;28;20082;-66
2022/03/28 03:15:46;;;;;;;16.77;4.90;;;;;;;5.72;100.00;102623.56;4950989;28;20039;-68
2022/03/28 03:18:11;;;;;;;16.92;5.50;;;;;;;5.70;100.00;102613.03;4955052;28;20094;-66
2022/03/28 03:20:37;;;;;;;19.10;4.32;;;;;;;5.71;100.00;102616.53;4959599;28;20022;-66
2022/03/28 03:23:02;;;;;;;18.45;5.03;;;;;;;5.69;100.00;102613.00;4961053;28;20033;-66
2022/03/28 03:25:27;;;;;;;20.50;5.50;;;;;;;5.63;100.00;102619.13;4970923;28;20061;-66
2022/03/28 03:27:53;;;;;;;16.38;4.60;;;;;;;5.61;100.00;102612.97;4953960;28;20031;-66
2022/03/28 03:30:19;;;;;;;15.70;5.47;;;;;;;5.60;100.00;102610.34;4954017;28;20495;-68
2022/03/28 03:32:45;;;;;;;17.13;5.60;;;;;;;5.62;100.00;102606.84;4964959;28;20118;-68
2022/03/28 03:35:11;;;;;;;19.02;5.47;;;;;;;5.60;100.00;102606.00;4962119;28;20112;-68
2022/03/28 03:37:37;;;;;;;17.55;5.20;;;;;;;5.60;100.00;102602.47;4959805;28;20053;-67
2022/03/28 03:40:07;;;;;;;19.33;5.15;;;;;;;5.53;100.00;102602.44;4971233;28;20039;-66
2022/03/28 03:42:34;;;;;;;18.58;5.25;;;;;;;5.49;100.00;102592.78;4955275;28;20083;-66
2022/03/28 03:45:00;;;;;;;16.58;5.38;;;;;;;5.47;100.00;102591.88;4954465;28;20105;-68
2022/03/28 03:47:26;;;;;;;21.65;5.65;;;;;;;5.44;100.00;102593.66;4963133;28;20062;-67
2022/03/28 03:49:51;;;;;;;19.30;5.55;;;;;;;5.44;100.00;102591.88;4954220;28;20110;-68
2022/03/28 03:52:18;;;;;;;20.92;5.43;;;;;;;5.41;100.00;102589.25;4952032;28;20533;-68
2022/03/28 03:54:43;;;;;;;20.95;5.93;;;;;;;5.36;100.00;102578.72;4952298;28;20031;-67
2022/03/28 03:57:09;;;;;;;15.85;5.72;;;;;;;5.37;100.00;102585.72;4965714;28;20031;-67
2022/03/28 03:59:34;;;;;;;15.63;5.38;;;;;;;5.37;100.00;102579.56;4952331;28;20035;-68
2022/03/28 04:02:00;;;;;;;24.92;5.82;;;;;;;5.34;100.00;102583.06;4970630;28;20031;-68
2022/03/28 04:04:25;;;;;;;16.58;5.68;;;;;;;5.33;100.00;102572.56;4952011;29;20042;-68
2022/03/28 04:06:51;;;;;;;16.25;5.88;;;;;;;5.31;100.00;102571.69;4962089;28;20035;-68
2022/03/28 04:09:16;;;;;;;19.55;6.15;;;;;;;5.31;100.00;102574.31;4954469;28;20371;-67
2022/03/28 04:11:41;;;;;;;19.52;5.97;;;;;;;5.30;100.00;102572.56;4955768;28;20062;-68
2022/03/28 04:14:07;;;;;;;20.63;6.05;;;;;;;5.28;100.00;102567.31;4955606;28;20035;-67
2022/03/28 04:16:33;;;;;;;20.83;6.05;;;;;;;5.26;100.00;102574.28;4957674;28;20122;-67
2022/03/28 04:18:59;;;;;;;18.42;5.88;;;;;;;5.25;100.00;102580.41;4960417;28;20411;-67
2022/03/28 04:21:24;;;;;;;16.52;5.85;;;;;;;5.25;100.00;102578.63;4963327;28;20402;-67
2022/03/28 04:23:49;;;;;;;19.55;6.20;;;;;;;5.21;100.00;102581.25;4970691;28;20050;-67
2022/03/28 04:26:15;;;;;;;18.73;6.38;;;;;;;5.20;100.00;102592.63;4966401;28;20051;-67
2022/03/28 04:28:40;;;;;;;19.33;6.10;;;;;;;5.19;100.00;102581.25;4975118;28;20031;-67
2022/03/28 04:31:05;;;;;;;20.13;6.30;;;;;;;5.19;100.00;102569.84;4955497;28;20043;-67
2022/03/28 04:33:31;;;;;;;21.38;6.32;;;;;;;5.16;100.00;102580.34;4961995;28;20215;-67
2022/03/28 04:35:56;;;;;;;19.90;6.38;;;;;;;5.11;100.00;102579.44;4953437;28;20069;-67
2022/03/28 04:38:24;;;;;;;21.52;7.13;;;;;;;5.09;100.00;102580.31;4979127;28;20034;-66
2022/03/28 04:40:50;;;;;;;23.17;6.70;;;;;;;5.12;100.00;102589.97;4958680;28;20027;-68
2022/03/28 04:43:15;;;;;;;17.70;6.40;;;;;;;5.08;100.00;102582.94;4973559;28;20398;-67
2022/03/28 04:45:41;;;;;;;14.45;6.45;;;;;;;5.00;100.00;102582.00;4958880;28;20081;-67
2022/03/28 04:48:06;;;;;;;19.15;7.32;;;;;;;4.91;100.00;102574.94;4956140;28;20038;-67
2022/03/28 04:50:32;;;;;;;21.08;7.95;;;;;;;4.85;100.00;102565.28;4956418;28;20065;-68
2022/03/28 04:52:57;;;;;;;16.02;7.55;;;;;;;4.85;100.00;102570.53;4963256;28;20678;-69
2022/03/28 04:55:22;;;;;;;18.38;7.75;;;;;;;4.83;100.00;102571.38;4963749;28;20113;-67
2022/03/28 04:57:48;;;;;;;20.02;7.18;;;;;;;4.78;100.00;102571.34;4956279;28;20042;-67
2022/03/28 05:00:15;;;;;;;20.90;8.02;;;;;;;4.76;100.00;102560.84;4958821;28;20487;-67
2022/03/28 05:02:40;;;;;;;22.33;7.50;;;;;;;4.74;100.00;102548.56;4977239;28;20038;-67
2022/03/28 05:05:06;;;;;;;27.27;8.18;;;;;;;4.75;100.00;102543.34;4962260;28;20035;-68
2022/03/28 05:07:32;;;;;;;20.73;7.10;;;;;;;4.80;100.00;102537.25;4970142;28;20043;-67
2022/03/28 05:09:59;;;;;;;18.77;6.90;;;;;;;4.81;100.00;102537.25;4966263;28;20234;-67
2022/03/28 05:12:25;;;;;;;19.98;7.45;;;;;;;4.80;100.00;102538.13;4987943;28;20052;-67
2022/03/28 05:14:51;;;;;;;21.08;7.72;;;;;;;4.81;100.00;102536.38;4951387;28;20102;-67
2022/03/28 05:17:24;;;;;;;23.67;8.10;;;;;;;4.81;100.00;102537.25;4954277;28;20483;-68
2022/03/28 05:19:50;;;;;;;23.10;8.57;;;;;;;4.86;100.00;102550.41;4953266;28;20455;-67
2022/03/28 05:22:16;;;;;;;24.75;10.02;;;;;;;4.88;100.00;102551.28;4955962;28;20090;-68
2022/03/28 05:24:42;;;;;;;22.52;8.80;;;;;;;4.91;100.00;102539.06;4955335;28;20475;-68
2022/03/28 05:27:07;;;;;;;23.98;9.85;;;;;;;4.95;100.00;102550.47;4955845;28;20534;-67
2022/03/28 05:29:32;;;;;;;21.30;9.23;;;;;;;4.96;100.00;102546.09;4955964;28;20094;-67
2022/03/28 05:31:58;;;;;;;26.73;10.55;;;;;;;4.94;100.00;102538.22;4954281;28;20039;-67
2022/03/28 05:34:23;;;;;;;21.02;10.25;;;;;;;4.91;100.00;102536.44;4966722;28;20031;-68
2022/03/28 05:36:49;;;;;;;22.80;9.88;;;;;;;4.92;100.00;102539.94;4955276;28;20050;-68
2022/03/28 05:39:14;;;;;;;28.83;10.77;;;;;;;4.91;100.00;102549.56;4968283;28;20086;-68
2022/03/28 05:41:41;;;;;;;26.50;10.60;;;;;;;4.92;100.00;102545.19;4955373;28;20027;-68
2022/03/28 05:44:06;;;;;;;31.75;10.52;;;;;;;4.95;100.00;102542.59;4953667;29;20107;-68
2022/03/28 05:46:31;;;;;;;27.05;11.25;;;;;;;4.97;100.00;102534.72;4970689;28;20035;-68
2022/03/28 05:48:57;;;;;;;24.00;10.80;;;;;;;5.00;100.00;102540.88;4956142;29;20031;-67
2022/03/28 05:51:22;;;;;;;26.90;9.95;;;;;;;5.04;100.00;102544.41;4955569;29;20034;-68
2022/03/28 05:53:48;;;;;;;23.83;10.05;;;;;;;5.04;100.00;102545.28;4955007;28;20042;-67
2022/03/28 05:56:13;;;;;;;23.15;10.02;;;;;;;5.04;100.00;102526.91;4955574;29;20042;-67
2022/03/28 05:58:39;;;;;;;21.98;9.77;;;;;;;5.04;100.00;102523.41;4955554;29;20434;-67
2022/03/28 06:01:04;;;;;;;24.10;10.43;;;;;;;5.05;100.00;102526.03;4955909;28;20046;-68
2022/03/28 06:03:30;;;;;;;27.50;11.55;;;;;;;5.11;100.00;102524.31;4954670;28;20042;-68
2022/03/28 06:05:55;;;;;;;22.58;10.70;;;;;;;5.13;100.00;102525.16;4953744;29;20432;-68
2022/03/28 06:08:21;;;;;;;27.00;11.77;;;;;;;5.24;100.00;102531.34;4955598;28;20073;-68
2022/03/28 06:10:47;;;;;;;26.83;12.10;;;;;;;5.28;100.00;102533.16;4955596;28;20043;-69
2022/03/28 06:13:12;;;;;;;26.77;12.65;;;;;;;5.32;100.00;102532.28;4995301;28;20042;-67
2022/03/28 06:15:41;;;;;;;25.92;12.52;;;;;;;5.39;100.00;102527.94;4994046;28;20385;-67
2022/03/28 06:18:07;;;;;;;27.30;12.60;;;;;;;5.49;100.00;102534.97;5000289;28;20114;-68
2022/03/28 06:20:32;;;;;;;29.15;13.13;;;;;;;5.50;100.00;102523.59;5013582;28;20029;-66
2022/03/28 06:22:59;;;;;;;27.02;12.27;;;;;;;5.55;100.00;102516.59;5004025;28;20822;-67
2022/03/28 06:25:24;;;;;;;24.58;11.63;;;;;;;5.65;100.00;102528.03;4993557;28;20136;-67
2022/03/28 06:27:50;;;;;;;18.33;10.43;;;;;;;5.73;100.00;102528.91;4993736;28;20030;-69
2022/03/28 06:30:15;;;;;;;22.13;10.82;;;;;;;5.65;100.00;102519.25;4992420;28;20435;-68
2022/03/28 06:32:41;;;;;;;26.13;12.30;;;;;;;5.56;100.00;102522.72;4993017;28;20386;-67
2022/03/28 06:35:07;;;;;;;22.02;12.07;;;;;;;5.64;100.00;102522.75;4998951;28;20049;-67
2022/03/28 06:37:33;;;;;;;22.00;11.23;;;;;;;5.70;100.00;102522.78;4999094;28;20035;-68
2022/03/28 06:39:59;;;;;;;19.42;10.50;;;;;;;5.74;100.00;102522.78;4993842;28;20026;-68
2022/03/28 06:42:25;;;;;;;22.13;10.68;;;;;;;5.86;100.00;102527.19;5007245;28;20169;-68
2022/03/28 06:44:51;;;;;;;18.25;10.13;;;;;;;5.93;100.00;102527.22;5013171;28;20034;-68
2022/03/28 06:47:16;;;;;;;18.67;9.60;;;;;;;6.05;100.00;102530.75;5003712;28;20045;-68
2022/03/28 06:49:42;;;;;;;19.88;9.98;;;;;;;6.14;100.00;102524.63;4993151;28;20033;-68
2022/03/28 06:52:09;;;;;;;18.08;9.32;;;;;;;6.27;100.00;102520.25;4993549;28;20034;-67
2022/03/28 06:54:35;;;;;;;19.33;9.60;;;;;;;6.36;100.00;102522.03;4993565;28;20030;-67
2022/03/28 06:57:03;;;;;;;17.88;10.13;;;;;;;6.46;100.00;102520.25;4994637;28;20034;-68
2022/03/28 06:59:29;;;;;;;17.88;9.30;;;;;;;6.56;100.00;102512.34;4993185;28;20026;-67
2022/03/28 07:01:56;;;;;;;21.55;10.40;;;;;;;6.66;100.00;102512.34;4993150;28;20537;-68
2022/03/28 07:04:22;;;;;;;26.55;9.98;;;;;;;6.78;100.00;102509.69;4993214;28;20505;-67
2022/03/28 07:06:48;;;;;;;16.98;9.57;;;;;;;6.82;100.00;102500.88;4991536;28;20039;-68
2022/03/28 07:09:13;;;;;;;19.45;10.50;;;;;;;6.86;100.00;102507.03;5015333;28;20053;-67
2022/03/28 07:11:39;;;;;;;18.42;10.02;;;;;;;6.99;100.00;102510.50;4994812;28;20073;-67
2022/03/28 07:14:04;;;;;;;17.15;10.40;;;;;;;7.01;100.00;102504.34;5028039;28;20030;-67
2022/03/28 07:16:29;;;;;;;19.10;9.63;;;;;;;7.13;100.00;102511.31;5001094;28;20041;-67
2022/03/28 07:18:55;;;;;;;14.38;8.88;;;;;;;7.25;99.95;102512.16;4991408;28;20121;-68
2022/03/28 07:21:20;;;;;;;14.07;8.45;;;;;;;7.21;98.28;102506.03;5007964;28;20048;-68
2022/03/28 07:23:47;;;;;;;15.85;8.43;;;;;;;7.04;97.96;102503.47;4989026;28;20124;-68
2022/03/28 07:26:14;;;;;;;14.18;8.18;;;;;;;6.84;97.88;102495.63;4982213;28;20117;-67
2022/03/28 07:28:39;;;;;;;14.55;8.35;;;;;;;6.81;97.29;102503.53;4992702;28;20173;-68
2022/03/28 07:31:08;;;;;;;15.65;8.68;;;;;;;6.93;98.86;102506.16;4992088;28;20544;-67
2022/03/28 07:33:36;;;;;;;15.15;8.75;;;;;;;7.00;98.80;102493.81;4994871;28;20036;-68
2022/03/28 07:36:02;;;;;;;16.88;8.27;;;;;;;7.25;98.02;102502.53;4992214;28;20493;-67
2022/03/28 07:38:28;;;;;;;20.80;9.18;;;;;;;7.16;96.76;102502.53;4991946;28;20134;-67
2022/03/28 07:40:53;;;;;;;14.07;8.60;;;;;;;7.08;97.16;102502.56;5000028;28;20105;-67
2022/03/28 07:43:19;;;;;;;15.65;8.43;;;;;;;7.21;96.74;102493.75;4991985;28;20030;-67
2022/03/28 07:45:44;;;;;;;16.15;8.40;;;;;;;7.29;97.26;102480.53;4992172;28;20549;-67
2022/03/28 07:48:09;;;;;;;16.42;9.00;;;;;;;7.44;97.38;102483.97;4992071;28;20034;-67
2022/03/28 07:50:35;;;;;;;14.15;8.60;;;;;;;7.57;95.77;102484.78;4992317;28;20057;-67
2022/03/28 07:53:02;;;;;;;19.98;8.40;;;;;;;7.61;93.89;102482.13;4991976;28;20052;-67
2022/03/28 07:55:28;;;;;;;15.63;7.95;;;;;;;7.58;94.89;102490.03;4992241;28;20034;-67
2022/03/28 07:57:54;;;;;;;15.18;8.32;;;;;;;7.54;93.87;102494.47;4992402;28;20160;-67
2022/03/28 08:00:19;;;;;;;15.98;8.80;;;;;;;7.49;94.49;102495.38;4976257;28;20092;-68
2022/03/28 08:02:45;;;;;;;15.50;8.85;;;;;;;7.53;94.17;102494.47;4989845;28;20058;-68
2022/03/28 08:05:11;;;;;;;15.00;8.35;;;;;;;7.54;93.04;102499.75;4992567;28;20045;-67
2022/03/28 08:07:37;;;;;;;17.90;8.77;;;;;;;7.69;93.34;102493.50;4995391;28;20207;-67
2022/03/28 08:10:05;;;;;;;13.90;8.20;;;;;;;7.87;92.77;102497.75;4990645;28;20069;-67
2022/03/28 08:12:31;;;;;;;16.02;8.82;;;;;;;7.93;93.01;102490.69;4991643;28;20039;-68
2022/03/28 08:14:56;;;;;;;16.17;9.00;;;;;;;7.99;91.32;102491.56;4973432;28;20041;-67
2022/03/28 08:17:22;;;;;;;16.58;8.52;;;;;;;7.92;92.49;102489.84;5001874;28;20032;-67
2022/03/28 08:19:47;;;;;;;14.07;8.73;;;;;;;7.95;91.78;102486.28;5004359;28;20089;-68
2022/03/28 08:22:14;;;;;;;15.18;8.68;;;;;;;7.98;94.14;102491.53;4995327;28;20019;-68
2022/03/28 08:24:39;;;;;;;13.77;9.00;;;;;;;7.89;93.38;102484.59;4994550;28;21906;-67
2022/03/28 08:27:06;;;;;;;14.63;9.18;;;;;;;8.28;91.75;102473.72;4995744;28;20027;-67
2022/03/28 08:29:32;;;;;;;14.02;8.25;;;;;;;8.44;91.22;102477.97;4994297;28;20038;-69
2022/03/28 08:32:02;;;;;;;16.70;9.27;;;;;;;8.51;89.65;102477.03;4995178;28;20374;-67
2022/03/28 08:34:28;;;;;;;17.75;8.45;;;;;;;8.50;90.30;102485.88;4993477;28;20026;-67
2022/03/28 08:36:53;;;;;;;15.60;8.73;;;;;;;8.46;90.70;102472.69;4995259;28;20041;-68
2022/03/28 08:39:18;;;;;;;13.93;9.00;;;;;;;8.79;90.34;102468.81;4995688;28;20023;-68
2022/03/28 08:41:46;;;;;;;14.77;8.65;;;;;;;8.96;87.94;102479.19;5002098;28;20092;-68
2022/03/28 08:44:12;;;;;;;18.80;8.60;;;;;;;9.21;89.08;102460.41;5015850;28;20034;-67
2022/03/28 08:46:40;;;;;;;14.23;8.70;;;;;;;9.38;88.23;102468.09;4995752;28;20062;-67
2022/03/28 08:49:06;;;;;;;16.60;8.77;;;;;;;9.24;87.92;102459.50;4995473;28;20023;-68
2022/03/28 08:51:31;;;;;;;19.27;8.35;;;;;;;9.40;87.65;102466.34;4995623;28;20034;-67
2022/03/28 08:53:57;;;;;;;12.57;7.80;;;;;;;9.56;87.20;102464.31;4995348;28;20552;-67
2022/03/28 08:56:22;;;;;;;18.60;9.23;;;;;;;9.40;87.04;102457.50;4994379;28;20038;-67
2022/03/28 08:58:48;;;;;;;14.90;8.80;;;;;;;9.11;86.84;102464.06;4994188;28;20049;-67
2022/03/28 09:01:15;;;;;;;15.77;8.77;;;;;;;8.90;87.88;102454.63;4994102;28;20041;-67
2022/03/28 09:03:44;;;;;;;16.05;8.68;;;;;;;8.80;87.62;102452.09;4993430;28;20030;-68
2022/03/28 09:06:48;;;;;;;16.15;8.35;;;;;;;8.61;89.56;102445.28;4977318;28;20389;-67
2022/03/28 09:09:19;;;;;;;17.70;8.73;;;;;;;8.90;89.28;102455.50;4935226;29;20119;-68
2022/03/28 09:11:53;;;;;;;13.38;8.43;;;;;;;9.17;89.21;102454.28;4934885;29;20086;-67
2022/03/28 09:14:29;;;;;;;18.70;9.18;;;;;;;9.82;87.55;102453.38;4967802;28;20077;-68
2022/03/28 09:17:03;;;;;;;15.20;8.60;;;;;;;10.89;83.37;102446.19;4994695;28;20030;-67
2022/03/28 09:19:45;;;;;;;21.42;9.40;;;;;;;11.88;77.89;102446.63;4995362;28;20084;-68
2022/03/28 09:22:19;;;;;;;;;;;;;;;13.23;70.23;102448.31;5002657;28;20038;-68
2022/03/28 09:24:45;;;;;;;14.23;8.20;;;;;;;14.05;67.14;102448.41;5011693;28;19914;-67
2022/03/28 09:27:11;;;;;;;16.45;8.98;;;;;;;14.07;64.97;102447.44;4994467;28;20042;-68
2022/03/28 09:30:05;;;;;;;15.40;8.45;;;;;;;14.88;62.16;102431.31;5014487;28;20084;-67
2022/03/28 09:32:39;;;;;;;15.30;8.13;;;;;;;15.52;60.58;102430.56;4993576;28;20045;-67
2022/03/28 09:35:21;;;;;;;16.23;8.93;;;;;;;16.11;57.27;102438.88;4994551;28;20026;-67
2022/03/28 09:38:08;;;;;;;17.65;9.88;;;;;;;16.06;56.19;102446.22;4993568;28;20058;-68
2022/03/28 09:40:40;;;;;;;16.02;8.93;;;;;;;16.36;56.52;102435.16;4977779;28;20030;-68
2022/03/28 09:43:16;;;;;;;17.95;10.55;;;;;;;15.77;58.24;102431.38;4991197;28;20462;-68
2022/03/28 09:45:45;;;;;;;15.60;9.50;;;;;;;17.11;53.86;102430.91;4986132;28;20109;-67
2022/03/28 09:48:11;;;;;;;17.00;9.15;;;;;;;17.78;51.64;102428.56;4993883;28;20109;-67
2022/03/28 09:50:46;;;;;;;15.95;9.63;;;;;;;17.97;50.41;102422.31;4994610;28;20054;-67
2022/03/28 09:53:22;;;;;;;17.42;9.77;;;;;;;18.60;47.10;102415.47;4991633;28;20034;-67
2022/03/28 09:55:55;;;;;;;17.45;9.93;;;;;;;17.80;49.15;102420.44;4989073;28;20509;-67
2022/03/28 09:58:42;;;;;;;16.20;9.60;;;;;;;17.99;48.74;102407.88;4988899;28;20371;-68
2022/03/28 10:01:33;;;;;;;15.65;9.57;;;;;;;18.66;46.21;102410.63;4983665;28;20030;-68
2022/03/28 10:04:10;;;;;;;19.10;9.65;;;;;;;18.00;47.68;102411.44;4969324;28;20109;-67
2022/03/28 10:06:38;;;;;;;16.70;9.82;;;;;;;18.63;46.97;102400.06;5007157;28;20033;-68
2022/03/28 10:09:05;;;;;;;17.60;9.93;;;;;;;19.06;44.97;102401.38;5016460;28;20026;-68
2022/03/28 10:11:32;;;;;;;20.08;9.43;;;;;;;19.24;44.51;102399.47;4999898;28;20074;-68
2022/03/28 10:13:58;;;;;;;20.25;10.07;;;;;;;19.27;44.09;102404.66;4998281;28;20068;-68
2022/03/28 10:16:24;;;;;;;21.77;11.40;;;;;;;18.96;45.23;102401.00;5012761;28;20034;-67
2022/03/28 10:18:50;;;;;;;17.75;10.25;;;;;;;19.52;45.10;102389.81;4992373;28;20038;-68
2022/03/28 10:21:23;;;;;;;15.80;9.05;;;;;;;20.01;43.16;102389.63;4992922;28;20018;-67
2022/03/28 10:23:54;;;;;;;13.73;9.40;;;;;;;20.48;41.35;102384.13;4993001;28;20034;-68
2022/03/28 10:26:27;;;;;;;20.98;10.48;;;;;;;19.81;42.85;102386.28;5006185;28;20061;-67
2022/03/28 10:29:22;;;;;;;16.55;9.50;;;;;;;20.04;43.02;102381.38;5010348;28;20029;-67
2022/03/28 10:31:54;;;;;;;15.20;9.52;;;;;;;19.96;42.44;102371.09;4993454;28;20042;-67
2022/03/28 10:35:01;;;;;;;16.48;10.40;;;;;;;19.18;45.34;102364.91;4993197;28;20041;-68
2022/03/28 10:37:37;;;;;;;15.85;9.55;;;;;;;20.31;42.80;102367.19;4981308;28;20452;-68
2022/03/28 10:40:25;;;;;;;17.42;10.60;;;;;;;19.41;43.93;102360.88;5002187;28;20033;-67
2022/03/28 10:43:08;;;;;;;15.38;9.98;;;;;;;20.74;41.39;102353.75;4980923;28;20481;-67
2022/03/28 10:45:50;;;;;;;14.63;8.80;;;;;;;20.97;41.94;102359.47;4998448;28;20018;-67
2022/03/28 10:48:34;;;;;;;19.77;10.52;;;;;;;21.37;39.89;102356.84;4998689;28;20078;-67
2022/03/28 10:51:09;;;;;;;17.52;9.43;;;;;;;21.84;39.13;102359.16;4994361;28;20057;-67
2022/03/28 10:53:39;;;;;;;17.08;9.82;;;;;;;21.49;39.73;102362.41;4974736;28;20022;-67
2022/03/28 10:56:17;;;;;;;18.08;10.38;;;;;;;21.26;40.92;102354.00;4983910;28;20030;-67
2022/03/28 10:58:53;;;;;;;17.95;10.65;;;;;;;20.87;40.46;102351.16;4972521;28;20038;-67
2022/03/28 11:01:24;;;;;;;17.70;9.68;;;;;;;21.64;38.70;102341.63;4996392;28;20033;-66
2022/03/28 11:04:05;;;;;;;13.13;8.77;;;;;;;21.44;39.64;102339.31;5012512;28;20109;-67
2022/03/28 11:07:22;;;;;;;15.38;9.55;;;;;;;22.03;38.11;102326.38;5012633;28;20030;-67
2022/03/28 11:09:47;;;;;;;18.67;9.80;;;;;;;21.01;39.71;102347.56;4990660;28;20042;-68
2022/03/28 11:12:39;;;;;;;14.68;9.40;;;;;;;21.79;39.55;102334.34;5000314;28;20574;-65
2022/03/28 11:15:18;;;;;;;20.35;9.75;;;;;;;21.86;37.91;102333.81;4993718;28;20053;-67
2022/03/28 11:17:58;;;;;;;18.38;9.95;;;;;;;21.69;38.72;102328.72;4995316;28;20030;-66
2022/03/28 11:20:28;;;;;;;20.13;10.48;;;;;;;20.33;41.94;102337.50;4979404;28;20046;-66
2022/03/28 11:23:09;;;;;;;19.70;9.60;;;;;;;20.62;41.75;102336.53;4997473;28;20117;-67